Asheville, NC

6:03 AM EDT on September 16, 2014 (GMT -0400)
Asheville Regional | Change Station
CLOSE
Current Station
Airport
Location: Asheville,
Elevation: 2169 ft
Nearby Weather Stations

Elev 2169 ft 35.43 °N, 82.54 °W | Updated 9 minutes ago

Overcast
Overcast
66 °F
Feels Like 66 °F
N
7
Wind Variable Wind from NNW

Today
High -- | Low -- °F
--% Chance of Precip.
Yesterday
High -- | Low -- °F
Precip. -- in
7:13 AM 7:35 PM
Waning Gibbous, 47% visible
Pressure 30.07 in
Visibility 10.0 miles
Clouds Few 400 ft
Scattered Clouds 1100 ft
Dew Point 64 °F
Humidity 93%
Rainfall 0.00 in
Snow Depth Not available.
UV 0 out of 12
Pollen 6.60 out of 12
PM2.5 Good
Flu Activity Not available.
METAR KAVL 160954Z AUTO 33006KT 10SM FEW004 SCT011 19/18 A3013 RMK AO2 SLP181 T01890178

More Conditions Fewer Conditions

Pressure 30.07 in
Visibility 10.0 miles
Clouds Few 400 ft
Scattered Clouds 1100 ft
Dew Point 64 °F
Humidity 93%
Rainfall 0.00 in
Snow Depth Not available.
UV 0 out of 12
Pollen 6.60 out of 12
PM2.5 Good
Flu Activity Not available.
METAR KAVL 160954Z AUTO 33006KT 10SM FEW004 SCT011 19/18 A3013 RMK AO2 SLP181 T01890178

More Conditions Fewer Conditions

10-Day Weather Forecast

Almanac

Astronomy

Sep. 16, 2014 Rise Set
Actual Time 7:13 AM EDT 7:35 PM EDT
Civil Twilight 6:48 AM EDT 8:01 PM EDT
Nautical Twilight 6:18 AM EDT 8:31 PM EDT
Astronomical Twilight 5:47 AM EDT 9:01 PM EDT
Moon 12:31 AM EDT 2:49 PM EDT
Length of Visible Light 13h 13m
Length of Day
12h 22m
Tomorrow will be 2m 13s shorter.
Waning Gibbous, 47% of the Moon is Illuminated
Today
Waning Gibbous
Sep 24
New
Oct 1
First Quarter
Oct 8
Full
Oct 15
Last Quarter

Today's Extremes

State Highs State Lows

Community

WunderPhotos

Upload Photos

1,753,717 photos uploaded!

WunderBlogs® & News

Nearby

Air Quality

  Air Quality AQ Index Pollutant
Yesterday Good
PM2.5
Yesterday Good
OZONE
Current Good
PM2.5
Tuesday Good
OZONE
Tuesday Good
PM2.5
Wednesday Good
PM2.5
Wednesday Good
OZONE
Thursday Good
PM2.5
Thursday Good
OZONE

Snow Depth

Station Depth Elevation
No new snow has been reported.

Earthquake Activity

City Distance Mag. Time & Date
No recent earthquake activity has been reported nearby.
Minimum magnitude displayed is 2.5.

Coastal Water Temperatures

Place Temperature
No Stations Reporting

Nearby Weather Stations